Time;durP1;ratioP1;P1;durP2;ratioP2;P2;SDS_P1;SDS_P2;PMS_P1;PMS_P2;Temp;Humidity;BMP_temperature;BMP_pressure;BME280_temperature;BME280_humidity;BME280_pressure;Samples;Min_cycle;Max_cycle;Signal;HPM_P1;HPM_P2
2023/06/11 00:00:52;;;;;;;8.13;3.90;;;17.40;99.90;;;16.85;100.00;101096.22;4119840;28;20508;-75
2023/06/11 00:02:54;;;;;;;6.40;4.32;;;17.30;99.90;;;16.82;100.00;101095.75;4123758;28;20030;-75
2023/06/11 00:04:57;;;;;;;7.45;3.45;;;17.30;99.90;;;16.79;100.00;101091.63;4130943;28;20498;-75
2023/06/11 00:06:58;;;;;;;6.57;3.50;;;17.30;99.90;;;16.76;100.00;101091.19;4125171;28;20061;-75
2023/06/11 00:08:58;;;;;;;4.93;3.65;;;17.30;99.90;;;16.74;100.00;101096.72;4119647;28;20771;-75
2023/06/11 00:11:00;;;;;;;5.57;3.35;;;17.20;99.90;;;16.72;100.00;101095.25;4119952;28;20022;-75
2023/06/11 00:13:00;;;;;;;9.52;3.88;;;17.20;99.90;;;16.69;100.00;101100.94;4119720;28;20037;-75
2023/06/11 00:15:02;;;;;;;7.72;4.30;;;17.20;99.90;;;16.68;100.00;101099.28;4122337;28;20034;-75
2023/06/11 00:17:03;;;;;;;8.30;3.83;;;17.10;99.90;;;16.62;100.00;101097.38;4122164;28;20371;-75
2023/06/11 00:19:04;;;;;;;5.25;4.32;;;17.10;99.90;;;16.64;100.00;101093.50;4118687;28;20041;-75
2023/06/11 00:21:05;;;;;;;5.18;3.83;;;17.10;99.90;;;16.58;100.00;101096.91;4119789;28;20031;-75
2023/06/11 00:23:06;;;;;;;8.38;3.60;;;17.10;99.90;;;16.54;100.00;101092.97;4120565;28;20041;-75
2023/06/11 00:25:10;;;;;;;5.82;3.55;;;17.00;99.90;;;16.43;100.00;101074.75;4122461;28;20026;-75
2023/06/11 00:27:10;;;;;;;9.20;4.13;;;17.00;99.90;;;16.45;100.00;101092.22;4119893;28;20035;-75
2023/06/11 00:29:11;;;;;;;6.63;3.88;;;17.00;99.90;;;16.44;100.00;101095.91;4119559;28;20438;-75
2023/06/11 00:31:12;;;;;;;5.68;3.90;;;16.90;99.90;;;16.39;100.00;101098.31;4119785;28;20022;-75
2023/06/11 00:33:13;;;;;;;6.35;4.40;;;16.90;99.90;;;16.38;100.00;101101.97;4119602;28;20030;-75
2023/06/11 00:35:14;;;;;;;6.53;4.50;;;16.90;99.90;;;16.35;100.00;101097.00;4120550;28;20031;-75
2023/06/11 00:37:15;;;;;;;8.98;4.22;;;16.80;99.90;;;16.37;100.00;101097.63;4134350;28;20037;-75
2023/06/11 00:39:16;;;;;;;8.48;4.53;;;16.80;99.90;;;16.36;100.00;101101.34;4119616;28;20022;-75
2023/06/11 00:41:17;;;;;;;9.32;4.13;;;16.80;99.90;;;16.37;100.00;101108.28;4119659;28;20030;-75
2023/06/11 00:43:21;;;;;;;7.90;4.75;;;16.80;99.90;;;16.35;100.00;101107.66;4119379;28;20407;-75
2023/06/11 00:45:24;;;;;;;6.93;4.50;;;16.80;99.90;;;16.34;100.00;101105.16;4126642;28;20022;-75
2023/06/11 00:47:24;;;;;;;7.07;4.40;;;16.80;99.90;;;16.28;100.00;101106.72;4128285;28;20038;-75
2023/06/11 00:49:26;;;;;;;12.80;4.95;;;16.80;99.90;;;16.29;100.00;101105.72;4121468;28;20019;-75
2023/06/11 00:51:28;;;;;;;10.05;5.43;;;16.80;99.90;;;16.30;100.00;101110.06;4121462;28;20027;-75
2023/06/11 00:53:29;;;;;;;7.68;4.72;;;16.80;99.90;;;16.32;100.00;101110.69;4122478;28;20023;-75
2023/06/11 00:55:30;;;;;;;8.23;4.75;;;16.80;99.90;;;16.36;100.00;101114.66;4126749;28;20500;-75
2023/06/11 00:57:31;;;;;;;11.75;5.13;;;16.70;99.90;;;16.35;100.00;101115.66;4126493;28;20074;-75
2023/06/11 00:59:34;;;;;;;7.68;5.53;;;16.80;99.90;;;16.33;100.00;101112.34;4122577;28;20031;-75
2023/06/11 01:01:45;;;;;;;8.13;5.40;;;16.80;99.90;;;16.32;100.00;101117.84;4121357;28;20026;-76
2023/06/11 01:03:52;;;;;;;5.88;4.55;;;16.80;99.90;;;16.26;100.00;101113.25;4131935;28;20041;-75
2023/06/11 01:06:11;;;;;;;6.50;4.65;;;16.80;99.90;;;16.29;100.00;101120.88;4129222;28;20089;-75
2023/06/11 01:08:16;;;;;;;7.97;4.60;;;16.70;99.90;;;16.25;100.00;101122.25;4138115;28;20041;-75
2023/06/11 01:10:18;;;;;;;8.20;5.07;;;16.70;99.90;;;16.19;100.00;101105.16;4138256;28;20022;-75
2023/06/11 01:12:20;;;;;;;7.88;4.78;;;16.70;99.90;;;16.25;100.00;101114.25;4138100;28;20038;-75
2023/06/11 01:14:21;;;;;;;9.35;5.72;;;16.70;99.90;;;16.21;100.00;101119.13;4138074;28;20026;-75
2023/06/11 01:17:02;;;;;;;6.43;4.68;;;16.70;99.90;;;16.17;100.00;101106.38;4135930;28;20141;-75
2023/06/11 01:19:31;;;;;;;10.85;5.45;;;16.70;99.90;;;16.15;100.00;101119.03;4119517;28;20387;-75
2023/06/11 01:21:46;;;;;;;6.47;4.93;;;16.60;99.90;;;16.13;100.00;101116.53;4122145;28;20069;-75
2023/06/11 01:24:21;;;;;;;9.25;4.80;;;16.60;99.90;;;16.14;100.00;101112.88;4136778;28;20034;-75
2023/06/11 01:26:31;;;;;;;8.35;5.22;;;16.60;99.90;;;16.15;100.00;101111.88;4136859;28;20018;-75
2023/06/11 01:28:36;;;;;;;8.48;5.22;;;16.60;99.90;;;16.16;100.00;101110.84;4137778;28;20038;-75
2023/06/11 01:30:47;;;;;;;10.55;5.10;;;16.70;99.90;;;16.15;100.00;101108.41;4138081;28;20030;-75
2023/06/11 01:32:55;;;;;;;10.32;5.32;;;16.60;99.90;;;16.13;100.00;101099.78;4138148;28;20034;-75
2023/06/11 01:35:01;;;;;;;8.43;5.13;;;16.60;99.90;;;16.09;100.00;101104.63;4135980;28;20034;-75
2023/06/11 01:37:04;;;;;;;10.75;5.68;;;16.60;99.90;;;16.05;100.00;101113.97;4120653;28;20030;-75
2023/06/11 01:39:05;;;;;;;6.50;4.82;;;16.60;99.90;;;16.03;100.00;101113.34;4120629;28;20391;-75
2023/06/11 01:41:06;;;;;;;10.40;5.68;;;16.50;99.90;;;16.02;100.00;101109.03;4121678;28;20132;-75
2023/06/11 01:43:07;;;;;;;8.75;6.45;;;16.50;99.90;;;15.97;100.00;101111.41;4121454;28;20027;-75
2023/06/11 01:45:08;;;;;;;8.05;6.18;;;16.50;99.90;;;16.01;100.00;101115.34;4123928;28;20375;-75
2023/06/11 01:47:10;;;;;;;7.15;4.75;;;16.50;99.90;;;15.97;100.00;101111.41;4129483;28;20027;-75
2023/06/11 01:49:10;;;;;;;12.43;6.03;;;16.50;99.90;;;15.99;100.00;101114.72;4121582;28;20023;-75
2023/06/11 01:51:14;;;;;;;10.57;6.30;;;16.50;99.90;;;15.94;100.00;101111.78;4121597;28;20023;-75
2023/06/11 01:53:16;;;;;;;10.20;6.10;;;16.40;99.90;;;15.93;100.00;101107.44;4121537;28;20051;-75
2023/06/11 01:55:17;;;;;;;9.18;5.55;;;16.40;99.90;;;15.83;100.00;101096.25;4123354;28;20056;-75
2023/06/11 01:57:18;;;;;;;14.23;6.75;;;16.40;99.90;;;15.83;100.00;101115.69;4125227;28;20031;-75
2023/06/11 01:59:21;;;;;;;10.88;6.20;;;16.30;99.90;;;15.79;100.00;101121.56;4121072;28;20495;-75
2023/06/11 02:01:23;;;;;;;8.93;5.07;;;16.30;99.90;;;15.75;100.00;101117.59;4104364;28;20031;-75
2023/06/11 02:03:24;;;;;;;11.93;5.90;;;16.30;99.90;;;15.76;100.00;101116.59;4129376;28;20030;-75
2023/06/11 02:05:25;;;;;;;7.30;5.30;;;16.30;99.90;;;15.76;100.00;101128.06;4126203;28;20114;-75
2023/06/11 02:07:27;;;;;;;10.05;6.05;;;16.30;99.90;;;15.76;100.00;101128.06;4120175;28;20027;-75
2023/06/11 02:09:28;;;;;;;11.20;5.38;;;16.30;99.90;;;15.74;100.00;101122.09;4121326;28;20045;-75
2023/06/11 02:11:28;;;;;;;10.40;6.13;;;16.20;99.90;;;15.69;100.00;101124.47;4121225;28;20030;-75
2023/06/11 02:13:32;;;;;;;10.50;5.97;;;16.20;99.90;;;15.69;100.00;101113.84;4119832;28;20414;-75
2023/06/11 02:15:33;;;;;;;11.05;5.63;;;16.20;99.90;;;15.63;100.00;101103.91;4120916;28;20055;-75
2023/06/11 02:17:34;;;;;;;9.68;5.70;;;16.10;99.90;;;15.61;100.00;101111.25;4120118;28;20082;-75
2023/06/11 02:19:35;;;;;;;7.18;5.85;;;16.10;99.90;;;15.58;100.00;101118.75;4137048;28;20030;-75
2023/06/11 02:21:35;;;;;;;8.43;4.88;;;16.10;99.90;;;15.55;100.00;101127.09;4120967;28;20023;-74
2023/06/11 02:23:36;;;;;;;6.97;4.75;;;16.00;99.90;;;15.50;100.00;101114.34;4122399;28;20030;-75
2023/06/11 02:25:37;;;;;;;10.85;6.10;;;16.00;99.90;;;15.49;100.00;101118.00;4119905;28;20030;-75
2023/06/11 02:27:38;;;;;;;10.13;7.00;;;16.00;99.90;;;15.52;100.00;101122.13;4120831;28;20486;-75
2023/06/11 02:29:39;;;;;;;9.45;5.85;;;16.00;99.90;;;15.56;100.00;101128.75;4120928;28;20102;-75
2023/06/11 02:31:40;;;;;;;11.70;5.95;;;16.00;99.90;;;15.56;100.00;101124.25;4120811;28;20022;-75
2023/06/11 02:33:40;;;;;;;11.15;6.47;;;16.00;99.90;;;15.58;100.00;101124.06;4119835;28;20035;-75
2023/06/11 02:35:41;;;;;;;7.38;5.93;;;16.00;99.90;;;15.54;100.00;101115.63;4121108;28;20508;-75
2023/06/11 02:37:42;;;;;;;8.95;5.97;;;16.00;99.90;;;15.54;100.00;101120.13;4120870;28;20034;-75
2023/06/11 02:39:43;;;;;;;12.98;6.03;;;16.00;99.90;;;15.49;100.00;101112.69;4120776;28;20046;-75
2023/06/11 02:41:44;;;;;;;8.27;5.70;;;16.00;99.90;;;15.46;100.00;101119.16;4119649;28;20038;-75
2023/06/11 02:43:45;;;;;;;7.78;5.63;;;15.90;99.90;;;15.42;100.00;101117.84;4120516;28;20038;-75
2023/06/11 02:45:45;;;;;;;10.25;6.28;;;15.90;99.90;;;15.38;100.00;101131.69;4120874;28;20030;-75
2023/06/11 02:47:46;;;;;;;12.93;6.45;;;15.90;99.90;;;15.35;100.00;101129.38;4120739;28;20034;-75
2023/06/11 02:49:47;;;;;;;10.20;6.65;;;15.80;99.90;;;15.32;100.00;101125.22;4120509;28;20034;-75
2023/06/11 02:51:48;;;;;;;9.02;5.93;;;15.80;99.90;;;15.31;100.00;101120.09;4120730;28;20030;-75
2023/06/11 02:53:49;;;;;;;8.07;6.57;;;15.80;99.90;;;15.28;100.00;101126.59;4120610;28;20098;-75
2023/06/11 02:55:50;;;;;;;8.32;5.00;;;15.80;99.90;;;15.24;100.00;101122.63;4120532;28;20054;-75
2023/06/11 02:57:50;;;;;;;8.73;5.18;;;15.80;99.90;;;15.24;100.00;101125.28;4120211;28;20078;-75
2023/06/11 02:59:51;;;;;;;9.18;6.38;;;15.70;99.90;;;15.23;100.00;101126.28;4120670;28;20022;-75
2023/06/11 03:01:54;;;;;;;8.25;5.70;;;15.70;99.90;;;15.23;100.00;101122.84;4120439;28;20038;-75
2023/06/11 03:03:55;;;;;;;9.48;6.22;;;15.70;99.90;;;15.19;100.00;101117.03;4132776;28;20544;-75
2023/06/11 03:05:56;;;;;;;7.32;5.57;;;15.70;99.90;;;15.20;100.00;101120.53;4119675;28;20123;-75
2023/06/11 03:07:57;;;;;;;8.40;5.65;;;15.70;99.90;;;15.15;100.00;101115.72;4138281;28;20030;-75
2023/06/11 03:09:58;;;;;;;9.38;5.82;;;15.70;99.90;;;15.08;100.00;101109.47;4151385;28;20036;-75
2023/06/11 03:11:59;;;;;;;9.88;5.40;;;15.60;99.90;;;15.10;100.00;101123.41;4136432;28;20076;-75
2023/06/11 03:14:00;;;;;;;8.68;5.05;;;15.60;99.90;;;15.13;100.00;101122.22;4134767;28;20022;-75
2023/06/11 03:16:01;;;;;;;6.43;4.40;;;15.60;99.90;;;15.16;100.00;101122.69;4134933;28;20050;-75
2023/06/11 03:18:03;;;;;;;8.77;5.93;;;15.70;99.90;;;15.24;100.00;101133.28;4136566;28;20022;-75
2023/06/11 03:20:05;;;;;;;7.45;4.93;;;15.70;99.90;;;15.32;100.00;101129.75;4136521;28;20037;-75
2023/06/11 03:22:06;;;;;;;10.80;6.05;;;15.80;99.90;;;15.44;100.00;101131.78;4134083;28;20026;-75
2023/06/11 03:24:07;;;;;;;8.40;6.03;;;15.90;99.90;;;15.48;100.00;101117.16;4119113;28;20031;-75
2023/06/11 03:26:07;;;;;;;8.15;6.05;;;16.00;99.90;;;15.67;100.00;101125.66;4119052;28;20102;-75
2023/06/11 03:28:09;;;;;;;10.00;6.75;;;16.10;99.90;;;15.74;100.00;101122.09;4134912;28;20026;-75
2023/06/11 03:30:11;;;;;;;6.63;5.88;;;16.20;99.90;;;15.88;100.00;101129.28;4134908;28;20027;-75
2023/06/11 03:32:12;;;;;;;7.57;5.40;;;16.40;99.90;;;15.92;100.00;101127.06;4120188;28;20042;-75
2023/06/11 03:34:13;;;;;;;8.73;5.53;;;16.50;99.90;;;16.08;100.00;101139.41;4120071;28;20027;-76
2023/06/11 03:36:13;;;;;;;7.78;5.53;;;16.60;99.90;;;16.05;100.00;101124.63;4120102;28;20019;-75
2023/06/11 03:38:14;;;;;;;6.53;5.70;;;16.60;99.90;;;16.16;100.00;101132.16;4119991;28;20085;-75
2023/06/11 03:40:15;;;;;;;10.75;6.57;;;16.70;99.90;;;16.26;100.00;101129.22;4118969;28;20038;-75
2023/06/11 03:42:16;;;;;;;8.98;6.15;;;16.80;99.90;;;16.33;100.00;101138.97;4119648;28;20086;-75
2023/06/11 03:44:17;;;;;;;10.30;6.60;;;16.90;99.90;;;16.41;100.00;101140.69;4121147;28;20061;-75
2023/06/11 03:46:21;;;;;;;14.80;7.80;;;16.90;99.90;;;16.45;100.00;101140.16;4119917;28;20078;-75
2023/06/11 03:48:21;;;;;;;8.50;5.88;;;17.00;99.90;;;16.49;100.00;101140.59;4120079;28;20023;-75
2023/06/11 03:50:23;;;;;;;10.23;6.75;;;17.00;99.90;;;16.52;100.00;101138.41;4120084;28;20031;-75
2023/06/11 03:52:24;;;;;;;9.18;6.38;;;17.10;99.90;;;16.56;100.00;101150.38;4119984;28;20034;-74
2023/06/11 03:54:25;;;;;;;9.57;5.47;;;17.10;99.90;;;16.57;100.00;101146.72;4120023;28;20473;-75
2023/06/11 03:56:26;;;;;;;9.05;5.88;;;17.10;99.90;;;16.60;100.00;101145.50;4119926;28;20090;-75
2023/06/11 03:58:27;;;;;;;10.05;5.93;;;17.10;99.90;;;16.59;100.00;101143.84;4119745;28;20030;-75
2023/06/11 04:00:31;;;;;;;10.57;5.38;;;17.10;99.90;;;16.62;100.00;101146.16;4119761;28;20031;-75
2023/06/11 04:02:32;;;;;;;8.18;6.07;;;17.20;99.90;;;16.64;100.00;101140.63;4120778;28;20027;-75
2023/06/11 04:04:33;;;;;;;8.10;5.05;;;17.20;99.90;;;16.68;100.00;101147.22;4130708;28;20038;-75
2023/06/11 04:06:39;;;;;;;7.18;5.18;;;17.20;99.90;;;16.72;100.00;101149.34;4119814;28;20031;-75
2023/06/11 04:08:40;;;;;;;9.38;6.13;;;17.20;99.90;;;16.74;100.00;101151.81;4119877;28;20026;-75
2023/06/11 04:10:41;;;;;;;9.85;6.40;;;17.30;99.90;;;16.74;100.00;101146.50;4118501;28;20027;-75
2023/06/11 04:12:42;;;;;;;6.07;5.28;;;17.30;99.90;;;16.78;100.00;101142.47;4118589;28;20034;-75
2023/06/11 04:14:43;;;;;;;8.25;5.68;;;17.30;99.90;;;16.75;100.00;101149.00;4119775;28;20450;-75
2023/06/11 04:16:43;;;;;;;9.05;6.82;;;17.30;99.90;;;16.74;100.00;101143.81;4119539;28;20113;-75
2023/06/11 04:18:47;;;;;;;15.20;7.18;;;17.30;99.90;;;16.65;100.00;101131.63;4118601;28;20034;-75
2023/06/11 04:20:48;;;;;;;9.55;6.68;;;17.30;99.90;;;16.63;100.00;101131.81;4122653;28;20038;-75
2023/06/11 04:22:49;;;;;;;9.25;5.80;;;17.20;99.90;;;16.61;100.00;101136.50;4136798;28;20031;-75
2023/06/11 04:24:51;;;;;;;10.95;6.60;;;17.10;99.90;;;16.55;100.00;101134.56;4139100;28;20076;-75
2023/06/11 04:26:51;;;;;;;13.93;6.85;;;17.10;99.90;;;16.50;100.00;101139.59;4139190;28;20508;-75
2023/06/11 04:28:52;;;;;;;9.75;6.93;;;17.00;99.90;;;16.43;100.00;101134.19;4138824;28;20027;-75
2023/06/11 04:30:57;;;;;;;12.70;7.68;;;17.00;99.90;;;16.41;100.00;101140.69;4137783;28;20041;-75
2023/06/11 04:33:03;;;;;;;10.02;8.02;;;16.90;99.90;;;16.39;100.00;101140.06;4138899;28;20034;-75
2023/06/11 04:35:04;;;;;;;9.02;7.05;;;16.90;99.90;;;16.32;100.00;101137.31;4138717;28;20026;-75
2023/06/11 04:37:08;;;;;;;9.07;7.22;;;16.90;99.90;;;16.29;100.00;101139.50;4138915;28;20034;-75
2023/06/11 04:39:09;;;;;;;11.80;8.35;;;16.80;99.90;;;16.23;100.00;101142.91;4137486;28;20089;-74
2023/06/11 04:41:11;;;;;;;15.43;8.20;;;16.80;99.90;;;16.17;100.00;101139.13;4153685;28;20030;-75
2023/06/11 04:43:12;;;;;;;13.57;7.72;;;16.70;99.90;;;16.14;100.00;101141.34;4137061;28;20117;-75
2023/06/11 04:45:18;;;;;;;11.48;8.38;;;16.70;99.90;;;16.15;100.00;101145.66;4138894;28;20481;-75
2023/06/11 04:47:22;;;;;;;11.60;7.25;;;16.70;99.90;;;16.10;100.00;101143.53;4138468;28;20028;-75
2023/06/11 04:49:23;;;;;;;;;;;16.60;99.90;;;16.02;100.00;101141.78;4139056;28;20592;-75
2023/06/11 04:51:25;;;;;;;10.80;7.32;;;16.60;99.90;;;16.03;100.00;101156.75;4137260;28;19921;-75
2023/06/11 04:53:27;;;;;;;14.63;8.48;;;16.60;99.90;;;16.08;100.00;101145.56;4137249;28;20030;-75
2023/06/11 04:55:28;;;;;;;16.77;8.30;;;16.60;99.90;;;16.08;100.00;101147.38;4138471;28;20030;-75
2023/06/11 04:57:32;;;;;;;11.35;9.23;;;16.60;99.90;;;16.04;100.00;101133.59;4136967;28;20026;-75
2023/06/11 04:59:32;;;;;;;13.40;9.30;;;16.60;99.90;;;16.08;100.00;101144.72;4138633;28;20042;-75
2023/06/11 05:01:37;;;;;;;11.73;8.20;;;16.60;99.90;;;16.07;100.00;101146.56;4138541;28;20023;-75
2023/06/11 05:03:38;;;;;;;8.90;7.22;;;16.60;99.90;;;16.07;100.00;101153.72;4138153;28;20030;-75
2023/06/11 05:05:40;;;;;;;13.60;8.57;;;16.60;99.90;;;16.12;100.00;101160.16;4125300;28;20022;-75
2023/06/11 05:07:41;;;;;;;11.05;8.40;;;16.60;99.90;;;16.17;100.00;101160.44;4122327;28;20437;-74
2023/06/11 05:09:43;;;;;;;13.18;8.50;;;16.60;99.90;;;16.20;100.00;101160.06;4122250;28;20475;-75
2023/06/11 05:11:44;;;;;;;9.90;7.78;;;16.60;99.90;;;16.21;100.00;101156.41;4122349;28;20031;-75
2023/06/11 05:13:45;;;;;;;12.65;8.93;;;16.60;99.90;;;16.27;100.00;101166.31;4130773;28;20030;-75
2023/06/11 05:15:46;;;;;;;13.60;8.35;;;16.70;99.90;;;16.28;100.00;101157.31;4122070;28;20102;-75
2023/06/11 05:17:47;;;;;;;10.38;8.20;;;16.70;99.90;;;16.27;100.00;101150.34;4122141;28;20026;-75
2023/06/11 05:19:48;;;;;;;12.15;8.90;;;16.80;99.90;;;16.31;100.00;101146.28;4121947;28;20046;-75
2023/06/11 05:21:49;;;;;;;13.68;8.90;;;16.80;99.90;;;16.32;100.00;101147.13;4123043;28;20023;-75
2023/06/11 05:23:50;;;;;;;11.63;8.25;;;16.80;99.90;;;16.35;100.00;101152.09;4122179;28;20069;-75
2023/06/11 05:25:51;;;;;;;13.43;9.18;;;16.80;99.90;;;16.39;100.00;101154.22;4121973;28;20022;-75
2023/06/11 05:28:06;;;;;;;12.13;8.20;;;16.80;99.90;;;16.39;100.00;101151.56;4121713;28;20077;-75
2023/06/11 05:30:08;;;;;;;11.75;8.75;;;16.80;99.90;;;16.43;100.00;101150.16;4128022;28;20026;-75
2023/06/11 05:32:09;;;;;;;11.77;8.25;;;16.90;99.90;;;16.50;100.00;101155.56;4121989;28;20031;-75
2023/06/11 05:34:10;;;;;;;9.48;7.00;;;16.90;99.90;;;16.53;100.00;101153.38;4122040;28;20459;-75
2023/06/11 05:36:11;;;;;;;10.40;8.63;;;16.90;99.90;;;16.56;100.00;101153.03;4121773;28;20039;-76
2023/06/11 05:38:11;;;;;;;15.02;9.40;;;17.00;99.90;;;16.58;100.00;101143.00;4121843;28;20023;-75
2023/06/11 05:40:13;;;;;;;14.18;7.78;;;17.00;99.90;;;16.66;100.00;101143.94;4120718;28;20111;-75
2023/06/11 05:42:14;;;;;;;11.90;8.63;;;17.10;99.90;;;16.72;100.00;101156.53;4104396;28;20031;-75
2023/06/11 05:44:16;;;;;;;8.70;6.85;;;17.10;99.90;;;16.76;100.00;101158.59;4121731;28;20027;-75
2023/06/11 05:46:17;;;;;;;7.80;6.90;;;17.20;99.90;;;16.81;100.00;101156.22;4120500;28;20023;-75
2023/06/11 05:48:18;;;;;;;8.27;7.30;;;17.20;99.90;;;16.83;100.00;101156.03;4121876;28;20109;-75
2023/06/11 05:50:18;;;;;;;11.45;9.05;;;17.20;99.90;;;16.89;100.00;101150.78;4120565;28;20031;-75
2023/06/11 05:52:19;;;;;;;15.50;9.38;;;17.30;99.90;;;16.91;100.00;101147.91;4121514;28;20529;-75
2023/06/11 05:54:20;;;;;;;10.82;8.52;;;17.40;99.90;;;16.96;100.00;101150.88;4121348;28;20019;-75
2023/06/11 05:56:21;;;;;;;8.48;7.35;;;17.40;99.90;;;17.01;100.00;101161.78;4121539;28;20035;-75
2023/06/11 05:58:22;;;;;;;11.93;7.68;;;17.40;99.90;;;17.06;100.00;101159.38;4121306;28;20057;-75
2023/06/11 06:00:23;;;;;;;9.73;6.97;;;17.50;99.90;;;17.14;100.00;101151.28;4121548;28;20038;-75
2023/06/11 06:02:24;;;;;;;8.35;6.80;;;17.50;99.90;;;17.28;100.00;101155.72;4136207;28;20037;-75
2023/06/11 06:04:25;;;;;;;9.88;6.22;;;17.60;99.90;;;17.35;100.00;101145.94;4134279;28;20019;-75
2023/06/11 06:06:27;;;;;;;7.63;6.82;;;17.80;99.90;;;17.49;100.00;101161.09;4121294;28;20023;-75
2023/06/11 06:08:29;;;;;;;9.65;6.43;;;17.80;99.90;;;17.51;100.00;101155.53;4121353;28;20479;-75
2023/06/11 06:10:30;;;;;;;7.82;6.07;;;17.90;99.90;;;17.47;100.00;101144.41;4120154;28;20034;-75
2023/06/11 06:12:31;;;;;;;6.72;6.03;;;17.90;99.90;;;17.54;100.00;101155.16;4121147;28;20391;-75
2023/06/11 06:14:32;;;;;;;11.55;6.60;;;17.90;99.90;;;17.54;100.00;101153.34;4121264;28;20027;-75
2023/06/11 06:16:33;;;;;;;7.88;6.43;;;18.00;99.90;;;17.51;100.00;101150.19;4125439;28;20538;-75
2023/06/11 06:18:37;;;;;;;8.65;6.63;;;18.00;99.90;;;17.56;100.00;101155.84;4152223;28;20034;-75
2023/06/11 06:20:37;;;;;;;8.18;6.38;;;18.00;99.90;;;17.56;100.00;101164.66;4121196;28;20031;-75
2023/06/11 06:22:38;;;;;;;8.68;7.38;;;18.00;99.90;;;17.59;100.00;101158.13;4126822;28;20063;-75
2023/06/11 06:24:39;;;;;;;10.98;8.07;;;18.00;99.90;;;17.61;100.00;101154.25;4123320;28;20031;-75
2023/06/11 06:26:43;;;;;;;11.30;7.80;;;18.10;99.90;;;17.66;100.00;101153.66;4136957;28;20027;-75
2023/06/11 06:28:44;;;;;;;;;;;18.10;99.90;;;17.66;100.00;101169.66;4136235;28;20069;-75
2023/06/11 06:30:45;;;;;;;8.00;6.68;;;18.20;99.90;;;17.72;100.00;101165.41;4137022;28;19917;-75
2023/06/11 06:32:46;;;;;;;10.38;7.43;;;18.20;99.90;;;17.83;100.00;101164.91;4136986;28;20034;-75
2023/06/11 06:34:47;;;;;;;7.70;6.07;;;18.30;99.90;;;17.87;100.00;101152.81;4136989;28;20030;-75
2023/06/11 06:36:48;;;;;;;8.85;6.90;;;18.30;99.90;;;18.01;100.00;101157.25;4137063;28;20021;-75
2023/06/11 06:38:48;;;;;;;6.93;5.95;;;18.40;99.90;;;18.07;100.00;101145.78;4136971;28;20027;-75
2023/06/11 06:40:49;;;;;;;8.38;6.22;;;18.50;99.90;;;18.15;100.00;101158.97;4137128;28;20018;-75
2023/06/11 06:42:50;;;;;;;9.40;6.95;;;18.60;99.90;;;18.20;100.00;101164.56;4134605;28;20027;-75
2023/06/11 06:44:51;;;;;;;13.30;6.75;;;18.60;99.90;;;18.24;100.00;101168.50;4136857;28;20033;-75
2023/06/11 06:46:53;;;;;;;10.13;6.85;;;18.70;99.90;;;18.26;100.00;101171.78;4135705;28;20395;-75
2023/06/11 06:48:54;;;;;;;11.20;6.07;;;18.70;99.90;;;18.29;100.00;101171.41;4136954;28;20026;-75
2023/06/11 06:50:55;;;;;;;10.82;6.75;;;18.80;99.90;;;18.20;100.00;101146.69;4136765;28;20034;-75
2023/06/11 06:52:56;;;;;;;12.00;6.28;;;18.80;99.90;;;18.39;100.00;101166.53;4136794;28;20033;-75
2023/06/11 06:54:57;;;;;;;7.03;5.38;;;18.90;99.90;;;18.48;100.00;101170.69;4136894;28;20022;-75
2023/06/11 06:56:58;;;;;;;6.43;4.30;;;18.90;99.90;;;18.66;100.00;101175.56;4135418;28;20027;-75
2023/06/11 06:58:59;;;;;;;9.15;5.20;;;19.00;99.90;;;18.90;100.00;101182.25;4124340;28;20042;-76
2023/06/11 07:00:59;;;;;;;8.77;4.68;;;19.10;99.90;;;19.09;100.00;101189.50;4119096;28;20030;-76
2023/06/11 07:03:00;;;;;;;6.85;4.15;;;19.30;99.90;;;19.20;100.00;101184.38;4125294;28;20030;-76
2023/06/11 07:05:01;;;;;;;5.65;3.75;;;19.40;99.90;;;19.22;100.00;101179.69;4128549;28;20487;-75
2023/06/11 07:07:02;;;;;;;8.50;3.65;;;19.50;99.90;;;19.28;100.00;101183.38;4120493;28;20077;-75
2023/06/11 07:09:03;;;;;;;6.60;3.75;;;19.60;99.90;;;19.27;100.00;101176.38;4120318;28;20093;-75
2023/06/11 07:11:04;;;;;;;8.73;4.28;;;19.60;99.90;;;19.30;100.00;101197.38;4120383;28;20034;-75
2023/06/11 07:13:05;;;;;;;5.50;3.17;;;19.60;99.90;;;19.29;100.00;101190.41;4120202;28;20042;-75
2023/06/11 07:15:07;;;;;;;6.38;3.67;;;19.70;99.90;;;19.34;100.00;101182.59;4120066;28;20031;-75
2023/06/11 07:17:08;;;;;;;6.32;3.92;;;19.70;99.90;;;19.52;100.00;101185.53;4118904;28;20030;-75
2023/06/11 07:19:10;;;;;;;5.57;3.03;;;19.80;99.90;;;19.60;100.00;101182.66;4120360;28;20363;-76
2023/06/11 07:21:12;;;;;;;7.40;3.65;;;20.00;99.90;;;19.96;100.00;101192.16;4120290;28;20022;-75
2023/06/11 07:23:13;;;;;;;5.05;3.22;;;20.20;99.90;;;20.23;100.00;101191.09;4131377;28;20031;-75
2023/06/11 07:25:15;;;;;;;6.30;3.65;;;20.40;99.90;;;20.43;100.00;101178.53;4136175;28;20034;-75
2023/06/11 07:27:16;;;;;;;8.35;3.97;;;20.60;99.90;;;20.69;100.00;101189.19;4136147;28;20454;-75
2023/06/11 07:29:17;;;;;;;9.40;3.90;;;20.90;99.90;;;20.93;100.00;101183.13;4136282;28;20058;-75
2023/06/11 07:31:18;;;;;;;9.70;4.30;;;21.10;99.90;;;21.13;100.00;101188.41;4134926;28;20033;-75
2023/06/11 07:33:19;;;;;;;6.63;3.50;;;21.30;99.90;;;21.42;100.00;101192.38;4134960;28;20022;-76
2023/06/11 07:35:21;;;;;;;6.60;3.63;;;21.60;99.90;;;21.44;100.00;101191.09;4120296;28;20038;-75
2023/06/11 07:37:21;;;;;;;4.07;2.90;;;21.70;99.90;;;21.75;100.00;101184.09;4119964;28;20029;-76
2023/06/11 07:39:22;;;;;;;7.97;3.10;;;21.90;99.90;;;21.90;100.00;101179.25;4120080;28;20038;-75
2023/06/11 07:41:23;;;;;;;3.70;2.60;;;22.10;99.90;;;22.04;100.00;101189.66;4118656;28;20041;-76
2023/06/11 07:43:24;;;;;;;7.78;3.40;;;22.20;99.90;;;22.16;100.00;101188.97;4119786;28;20035;-75
2023/06/11 07:45:25;;;;;;;5.63;2.95;;;22.30;99.90;;;22.26;100.00;101183.88;4120048;28;20050;-75
2023/06/11 07:47:26;;;;;;;6.13;3.90;;;22.40;99.90;;;22.25;100.00;101193.00;4120192;28;20093;-75
2023/06/11 07:49:27;;;;;;;4.57;3.78;;;22.50;99.90;;;22.29;100.00;101194.19;4118698;28;20030;-75
2023/06/11 07:51:27;;;;;;;6.10;3.67;;;22.50;99.90;;;22.10;100.00;101198.72;4121571;28;20150;-75
2023/06/11 07:53:28;;;;;;;5.63;3.40;;;22.50;99.90;;;22.02;100.00;101185.56;4120872;28;20074;-75
2023/06/11 07:55:29;;;;;;;6.93;3.85;;;22.40;99.90;;;22.30;100.00;101196.66;4106241;28;20403;-75
2023/06/11 07:57:30;;;;;;;7.90;3.67;;;22.50;99.90;;;22.42;100.00;101192.22;4123116;28;20439;-75
2023/06/11 07:59:31;;;;;;;4.80;3.20;;;22.60;99.90;;;22.47;100.00;101195.03;4123337;28;20035;-75
2023/06/11 08:01:32;;;;;;;5.53;2.67;;;22.80;99.90;;;22.36;100.00;101190.41;4129061;28;20041;-75
2023/06/11 08:03:33;;;;;;;6.03;2.85;;;22.80;99.90;;;22.59;100.00;101192.44;4138504;28;20109;-75
2023/06/11 08:05:34;;;;;;;4.85;2.63;;;22.90;99.90;;;22.52;100.00;101200.56;4126987;28;20022;-75
2023/06/11 08:07:35;;;;;;;6.13;2.67;;;22.90;99.90;;;22.02;100.00;101207.88;4122985;28;20035;-75
2023/06/11 08:09:37;;;;;;;4.70;2.80;;;22.70;99.90;;;22.15;100.00;101200.75;4123161;28;20031;-75
2023/06/11 08:11:41;;;;;;;3.63;2.00;;;22.60;99.90;;;22.33;100.00;101203.47;4128089;28;20022;-75
2023/06/11 08:13:42;;;;;;;3.30;2.25;;;22.50;99.90;;;22.49;100.00;101205.59;4126296;28;20157;-75
2023/06/11 08:15:43;;;;;;;3.97;2.35;;;22.50;99.90;;;22.57;100.00;101194.53;4122854;28;20073;-75
2023/06/11 08:17:45;;;;;;;4.60;2.88;;;22.60;99.90;;;22.38;100.00;101195.53;4121765;28;20045;-75
2023/06/11 08:19:46;;;;;;;3.13;2.10;;;22.70;99.90;;;22.40;100.00;101198.84;4121800;28;20105;-75
2023/06/11 08:21:47;;;;;;;3.03;1.80;;;22.70;99.90;;;22.60;100.00;101204.84;4130426;28;20029;-75